Time;durP1;ratioP1;P1;durP2;ratioP2;P2;SDS_P1;SDS_P2;PMS_P1;PMS_P2;Temp;Humidity;BMP_temperature;BMP_pressure;BME280_temperature;BME280_humidity;BME280_pressure;Samples;Min_cycle;Max_cycle;Signal;HPM_P1;HPM_P2
2022/03/24 00:02:50;;;;;;;1.73;1.00;;;;;;;-0.22;53.48;96858.38;6372217;27;20050;-61
2022/03/24 00:05:54;;;;;;;1.45;1.05;;;;;;;-0.21;53.41;96857.47;6371694;27;20051;-61
2022/03/24 00:08:55;;;;;;;1.17;1.08;;;;;;;-0.21;53.61;96847.13;6369943;27;20043;-61
2022/03/24 00:11:57;;;;;;;1.88;0.85;;;;;;;-0.29;53.97;96854.22;6372258;27;20112;-61
2022/03/24 00:15:05;;;;;;;1.77;1.13;;;;;;;-0.42;54.35;96852.81;6371263;27;20382;-61
2022/03/24 00:18:12;;;;;;;4.38;1.00;;;;;;;-0.54;54.42;96847.00;6372887;27;20054;-62
2022/03/24 00:21:16;;;;;;;1.33;0.90;;;;;;;-0.57;55.15;96849.63;6377403;27;20042;-61
2022/03/24 00:24:23;;;;;;;1.13;1.00;;;;;;;-0.67;55.02;96845.56;6377946;27;20488;-60
2022/03/24 00:27:27;;;;;;;3.08;1.40;;;;;;;-0.77;55.72;96838.88;6368652;27;20053;-61
2022/03/24 00:30:31;;;;;;;2.17;0.88;;;;;;;-0.82;55.55;96838.09;6369821;27;20039;-62
2022/03/24 00:33:37;;;;;;;1.17;1.08;;;;;;;-0.86;55.55;96839.91;6370089;27;20038;-60
2022/03/24 00:36:41;;;;;;;1.23;1.00;;;;;;;-0.88;55.54;96828.75;6372290;27;20051;-62
2022/03/24 00:39:43;;;;;;;2.42;1.00;;;;;;;-0.87;55.52;96835.63;6373878;27;20539;-62
2022/03/24 00:42:45;;;;;;;2.35;1.20;;;;;;;-0.88;55.65;96849.41;6355794;27;20526;-62
2022/03/24 00:45:47;;;;;;;1.35;0.90;;;;;;;-0.88;56.16;96851.16;6374862;27;20416;-61
2022/03/24 00:48:52;;;;;;;1.52;1.10;;;;;;;-1.05;55.95;96856.66;6373503;27;21481;-62
2022/03/24 00:51:54;;;;;;;2.47;1.20;;;;;;;-1.20;55.72;96847.47;6375653;27;20399;-60
2022/03/24 00:54:57;;;;;;;7.40;2.00;;;;;;;-1.15;56.57;96862.00;6371044;27;20043;-62
2022/03/24 00:57:59;;;;;;;2.65;1.30;;;;;;;-1.21;56.27;96845.78;6353559;27;20039;-61
2022/03/24 01:01:04;;;;;;;5.50;1.25;;;;;;;-1.23;56.43;96857.84;6372115;27;20058;-61
2022/03/24 01:04:09;;;;;;;2.95;1.38;;;;;;;-1.25;56.27;96844.13;6374554;27;20038;-61
2022/03/24 01:07:10;;;;;;;1.75;1.40;;;;;;;-1.16;57.05;96842.22;6355733;27;20073;-61
2022/03/24 01:10:17;;;;;;;1.80;1.17;;;;;;;-1.15;56.85;96845.66;6369301;27;20042;-61
2022/03/24 01:13:21;;;;;;;1.63;1.10;;;;;;;-1.18;56.45;96850.88;6370400;27;20055;-61
2022/03/24 01:16:25;;;;;;;2.47;1.20;;;;;;;-1.24;56.39;96844.09;6371075;27;20130;-61
2022/03/24 01:19:29;;;;;;;;;;;;;;;-1.34;56.27;96847.72;6370152;27;20043;-61
2022/03/24 01:22:33;;;;;;;3.47;1.38;;;;;;;-1.47;56.82;96836.78;6376961;27;19919;-61
2022/03/24 01:25:37;;;;;;;1.38;1.13;;;;;;;-1.48;57.33;96847.97;6372345;27;20043;-62
2022/03/24 01:28:40;;;;;;;1.58;1.27;;;;;;;-1.52;57.02;96846.34;6366484;27;20047;-60
2022/03/24 01:31:42;;;;;;;1.65;1.23;;;;;;;-1.49;57.30;96846.28;6375023;27;20046;-61
2022/03/24 01:34:45;;;;;;;;;;;;;;;-1.57;57.06;96848.13;6374350;27;20043;-60
2022/03/24 01:37:47;;;;;;;4.18;1.02;;;;;;;-1.65;57.36;96847.41;6369346;27;19919;-64
2022/03/24 01:40:51;;;;;;;2.78;1.00;;;;;;;-1.70;57.51;96855.25;6369793;27;20054;-61
2022/03/24 01:43:52;;;;;;;;;;;;;;;-1.75;57.17;96851.03;6372180;27;20050;-60
2022/03/24 01:47:11;;;;;;;1.73;1.42;;;;;;;-1.66;58.30;96853.47;6370787;27;20009;-60
2022/03/24 01:50:12;;;;;;;3.88;1.25;;;;;;;-1.64;57.78;96849.97;6372557;27;20064;-61
2022/03/24 01:53:15;;;;;;;1.23;1.13;;;;;;;-1.75;57.68;96851.91;6373083;27;20035;-62
2022/03/24 01:56:18;;;;;;;2.60;1.60;;;;;;;-1.76;58.21;96851.91;6378215;27;20543;-62
2022/03/24 01:59:22;;;;;;;5.00;2.35;;;;;;;-1.79;58.56;96854.53;6371620;27;20520;-62
2022/03/24 02:02:29;;;;;;;2.53;1.73;;;;;;;-1.78;58.34;96851.06;6371690;27;20031;-62
2022/03/24 02:05:34;;;;;;;5.22;2.33;;;;;;;-1.76;57.91;96839.84;6373366;27;20646;-61
2022/03/24 02:08:35;;;;;;;6.93;2.63;;;;;;;-1.67;58.38;96831.09;6368049;27;20051;-62
2022/03/24 02:11:40;;;;;;;7.00;3.33;;;;;;;-1.78;58.64;96833.00;6372002;27;20503;-62
2022/03/24 02:14:45;;;;;;;4.63;2.58;;;;;;;-1.85;58.75;96837.44;6372676;27;20043;-62
2022/03/24 02:17:48;;;;;;;5.47;2.90;;;;;;;-1.79;58.52;96839.06;6366061;27;20103;-61
2022/03/24 02:20:52;;;;;;;6.38;2.97;;;;;;;-1.76;58.25;96847.59;6373894;27;20051;-61
2022/03/24 02:23:54;;;;;;;7.00;2.83;;;;;;;-1.72;58.54;96843.25;6370411;27;20039;-62
2022/03/24 02:27:02;;;;;;;5.10;2.40;;;;;;;-1.77;58.67;96847.63;6369601;27;20404;-61
2022/03/24 02:30:07;;;;;;;3.90;2.10;;;;;;;-1.81;58.66;96850.25;6373977;27;20043;-62
2022/03/24 02:33:08;;;;;;;2.95;1.80;;;;;;;-1.78;58.50;96853.66;6368819;27;20074;-60
2022/03/24 02:36:12;;;;;;;3.80;1.65;;;;;;;-1.93;58.89;96850.44;6370595;27;20043;-62
2022/03/24 02:39:16;;;;;;;5.45;1.80;;;;;;;-2.07;59.23;96849.81;6372818;27;20038;-61
2022/03/24 02:42:25;;;;;;;3.35;1.90;;;;;;;-1.99;58.98;96853.13;6371017;27;20047;-61
2022/03/24 02:45:27;;;;;;;4.25;2.05;;;;;;;-2.13;59.67;96853.34;6371653;27;20054;-62
2022/03/24 02:48:29;;;;;;;2.67;1.63;;;;;;;-2.10;59.55;96849.88;6368731;27;20050;-63
2022/03/24 02:51:32;;;;;;;2.58;1.58;;;;;;;-2.13;59.99;96862.81;6371309;27;20168;-61
2022/03/24 02:54:36;;;;;;;3.15;2.13;;;;;;;-2.09;60.00;96849.84;6371946;27;20039;-62
2022/03/24 02:57:38;;;;;;;6.25;2.78;;;;;;;-2.11;59.73;96850.75;6371746;27;20565;-60
2022/03/24 03:00:40;;;;;;;4.03;1.95;;;;;;;-2.19;59.62;96850.00;6369949;27;20047;-61
2022/03/24 03:03:42;;;;;;;3.97;2.47;;;;;;;-2.05;59.80;96842.91;6367554;27;20039;-62
2022/03/24 03:06:46;;;;;;;3.60;1.85;;;;;;;-2.10;59.70;96842.13;6366885;27;20054;-61
2022/03/24 03:09:51;;;;;;;3.00;2.05;;;;;;;-2.08;60.10;96856.69;6367463;27;20501;-62
2022/03/24 03:12:58;;;;;;;4.13;2.20;;;;;;;-2.01;60.14;96849.72;6369471;27;20043;-62
2022/03/24 03:16:04;;;;;;;5.80;2.30;;;;;;;-1.99;59.89;96855.69;6349431;27;20035;-62
2022/03/24 03:19:09;;;;;;;2.88;1.90;;;;;;;-1.97;59.67;96858.28;6367460;27;20051;-62
2022/03/24 03:22:14;;;;;;;3.25;1.73;;;;;;;-1.89;59.69;96867.59;6353863;27;20047;-62
2022/03/24 03:25:20;;;;;;;4.00;2.25;;;;;;;-1.76;59.29;96877.69;6351236;27;20035;-62
2022/03/24 03:28:21;;;;;;;3.85;2.10;;;;;;;-1.48;58.71;96867.78;6368771;27;20043;-62
2022/03/24 03:31:25;;;;;;;4.07;1.88;;;;;;;-1.41;58.80;96869.38;6368854;27;20038;-61
2022/03/24 03:34:29;;;;;;;5.10;2.03;;;;;;;-1.52;58.79;96872.13;6366122;27;20043;-62
2022/03/24 03:37:33;;;;;;;2.40;1.80;;;;;;;-1.67;59.10;96885.28;6333755;27;20057;-62
2022/03/24 03:40:42;;;;;;;3.90;2.45;;;;;;;-1.92;59.76;96882.28;6350121;27;20408;-61
2022/03/24 03:43:45;;;;;;;4.18;2.33;;;;;;;-1.77;59.50;96886.31;6370238;27;20050;-63
2022/03/24 03:46:51;;;;;;;3.17;2.08;;;;;;;-1.76;59.25;96888.00;6370694;27;20050;-61
2022/03/24 03:49:57;;;;;;;3.95;1.80;;;;;;;-1.70;59.58;96867.28;6369656;27;20039;-61
2022/03/24 03:53:08;;;;;;;5.32;2.10;;;;;;;-1.54;59.38;96873.88;6368178;27;20167;-62
2022/03/24 03:56:14;;;;;;;6.00;2.53;;;;;;;-1.37;59.26;96871.00;6365218;27;20054;-62
2022/03/24 03:59:18;;;;;;;2.90;1.85;;;;;;;-1.24;58.54;96863.91;6369300;27;20039;-62
2022/03/24 04:02:25;;;;;;;2.13;1.67;;;;;;;-1.23;58.70;96850.13;6365220;27;20034;-63
2022/03/24 04:05:35;;;;;;;3.03;1.85;;;;;;;-1.03;58.26;96875.56;6372599;27;20046;-60
2022/03/24 04:08:42;;;;;;;3.58;2.00;;;;;;;-1.13;58.66;96875.75;6369421;27;20166;-62
2022/03/24 04:11:46;;;;;;;3.50;1.83;;;;;;;-0.99;58.80;96872.91;6368596;27;20047;-65
2022/03/24 04:14:50;;;;;;;4.32;1.88;;;;;;;-0.88;58.10;96890.75;6367130;27;20050;-63
2022/03/24 04:17:55;;;;;;;5.57;2.72;;;;;;;-0.75;57.63;96881.03;6366434;27;20039;-62
2022/03/24 04:20:59;;;;;;;6.35;3.13;;;;;;;-0.85;58.04;96874.34;6367108;27;20047;-62
2022/03/24 04:24:08;;;;;;;4.70;2.45;;;;;;;-0.63;57.44;96870.44;6376173;27;20035;-61
2022/03/24 04:27:12;;;;;;;3.50;2.67;;;;;;;-0.51;57.24;96875.38;6380144;27;20059;-61
2022/03/24 04:30:15;;;;;;;8.68;3.63;;;;;;;-0.42;57.26;96876.06;6377512;27;20046;-62
2022/03/24 04:33:20;;;;;;;6.30;2.35;;;;;;;-0.46;57.43;96876.09;6382026;27;20043;-64
2022/03/24 04:36:23;;;;;;;7.78;3.35;;;;;;;-0.46;57.60;96876.09;6380625;27;20051;-64
2022/03/24 04:39:24;;;;;;;3.95;3.10;;;;;;;-0.17;56.40;96877.22;6371475;27;20047;-63
2022/03/24 04:42:26;;;;;;;6.20;3.28;;;;;;;-0.36;57.27;96868.19;6382124;27;20043;-64
2022/03/24 04:45:33;;;;;;;5.18;2.45;;;;;;;-0.42;58.16;96865.72;6384406;27;20083;-63
2022/03/24 04:48:38;;;;;;;4.63;2.40;;;;;;;-0.20;57.25;96874.69;6383528;27;20038;-63
2022/03/24 04:51:41;;;;;;;;;;;;;;;-0.07;57.05;96873.53;6379675;27;20046;-63
2022/03/24 04:54:45;;;;;;;5.47;2.28;;;;;;;0.11;57.02;96884.34;6381837;27;19923;-63
2022/03/24 04:57:52;;;;;;;3.22;2.30;;;;;;;0.26;56.45;96883.16;6383313;27;20067;-62
2022/03/24 05:00:53;;;;;;;4.50;2.60;;;;;;;0.32;56.75;96889.03;6381105;27;20042;-63
2022/03/24 05:03:55;;;;;;;4.95;2.92;;;;;;;0.57;55.69;96901.38;6379459;27;20115;-63
2022/03/24 05:06:56;;;;;;;2.67;2.20;;;;;;;1.04;54.83;96896.69;6381156;27;20039;-62
2022/03/24 05:10:07;;;;;;;4.38;2.33;;;;;;;1.26;53.87;96900.41;6377235;27;20127;-62
2022/03/24 05:13:08;;;;;;;9.00;4.93;;;;;;;1.74;52.67;96902.50;6381420;27;20140;-62
2022/03/24 05:16:12;;;;;;;11.02;5.03;;;;;;;1.96;52.41;96912.25;6382127;27;20061;-62
2022/03/24 05:19:19;;;;;;;5.30;2.85;;;;;;;2.40;51.37;96907.41;6385140;27;20046;-62
2022/03/24 05:22:22;;;;;;;4.00;2.30;;;;;;;2.81;50.61;96913.03;6382785;27;20137;-62
2022/03/24 05:25:26;;;;;;;3.13;2.28;;;;;;;3.15;49.71;96916.16;6382938;27;20419;-62
2022/03/24 05:28:28;;;;;;;2.78;2.03;;;;;;;3.50;48.97;96919.25;6383893;27;20058;-62
2022/03/24 05:31:29;;;;;;;3.25;1.80;;;;;;;4.05;47.57;96912.03;6379653;27;20131;-62
2022/03/24 05:34:36;;;;;;;2.33;1.65;;;;;;;4.70;46.67;96904.25;6385341;27;20038;-63
2022/03/24 05:37:41;;;;;;;8.88;6.55;;;;;;;5.58;45.35;96904.81;6389429;27;20042;-62
2022/03/24 05:40:43;;;;;;;8.50;7.07;;;;;;;6.93;42.96;96900.25;6384728;27;20039;-62
2022/03/24 05:44:06;;;;;;;6.63;3.70;;;;;;;9.75;37.73;96895.13;6381982;27;20487;-63
2022/03/24 05:47:08;;;;;;;2.67;1.70;;;;;;;13.17;32.05;96908.03;6386482;27;20139;-62
2022/03/24 05:50:13;;;;;;;2.55;1.50;;;;;;;16.79;26.42;96911.09;6385467;27;20435;-63
2022/03/24 05:53:19;;;;;;;2.30;1.10;;;;;;;19.76;22.24;96922.91;6381785;27;20045;-63
2022/03/24 05:56:24;;;;;;;2.35;1.38;;;;;;;21.60;20.02;96925.00;6379298;27;20050;-64
2022/03/24 05:59:26;;;;;;;3.90;1.60;;;;;;;23.25;19.22;96933.28;6379191;27;20102;-63
2022/03/24 06:02:28;;;;;;;1.73;1.20;;;;;;;24.10;18.46;96937.66;6375484;27;20485;-63
2022/03/24 06:05:31;;;;;;;3.15;1.38;;;;;;;23.03;18.02;96928.72;6380056;27;20053;-63
2022/03/24 06:08:34;;;;;;;2.58;1.50;;;;;;;21.97;18.11;96944.09;6385135;27;20057;-63
2022/03/24 06:11:37;;;;;;;2.63;1.30;;;;;;;21.81;18.83;96943.25;6396191;27;20051;-63
2022/03/24 06:14:40;;;;;;;1.17;0.90;;;;;;;23.68;17.21;96944.38;6377157;27;20043;-63
2022/03/24 06:17:46;;;;;;;1.55;1.10;;;;;;;25.47;16.06;96951.50;6383720;27;20046;-64
2022/03/24 06:20:50;;;;;;;1.77;0.80;;;;;;;25.94;15.01;96947.44;6381342;27;20051;-63
2022/03/24 06:23:54;;;;;;;1.27;1.10;;;;;;;26.14;14.50;96942.19;6376096;27;20039;-64
2022/03/24 06:26:56;;;;;;;1.65;1.20;;;;;;;25.70;14.05;96928.91;6380107;27;20043;-63
2022/03/24 06:29:57;;;;;;;1.58;1.15;;;;;;;24.78;15.18;96934.94;6381602;27;20039;-64
2022/03/24 06:33:01;;;;;;;3.35;1.00;;;;;;;25.00;14.48;96928.59;6374854;27;20067;-64
2022/03/24 06:36:05;;;;;;;1.70;1.00;;;;;;;24.81;15.07;96929.19;6381111;27;20057;-64
2022/03/24 06:39:07;;;;;;;1.70;0.90;;;;;;;24.70;14.72;96918.88;6379089;27;20039;-64
2022/03/24 06:42:09;;;;;;;1.23;1.00;;;;;;;24.86;14.10;96926.75;6375107;27;20175;-64
2022/03/24 06:45:14;;;;;;;3.08;1.30;;;;;;;26.05;13.63;96932.59;6377827;27;20501;-63
2022/03/24 06:48:18;;;;;;;2.88;0.80;;;;;;;27.70;12.21;96937.13;6375936;27;20411;-64
2022/03/24 06:51:22;;;;;;;0.80;0.60;;;;;;;28.14;11.39;96927.59;6377966;27;20039;-63
2022/03/24 06:54:26;;;;;;;1.15;0.80;;;;;;;28.17;11.31;96929.06;6381224;27;20057;-63
2022/03/24 06:57:30;;;;;;;1.77;0.70;;;;;;;28.45;11.47;96918.03;6381090;27;20047;-64
2022/03/24 07:00:34;;;;;;;1.13;0.50;;;;;;;29.44;11.00;96926.78;6375725;27;20050;-64
2022/03/24 07:03:40;;;;;;;1.45;0.70;;;;;;;31.02;10.29;96928.38;6382877;27;20500;-64
2022/03/24 07:06:45;;;;;;;1.42;0.93;;;;;;;32.78;9.39;96941.59;6385907;27;20035;-64
2022/03/24 07:09:46;;;;;;;1.90;0.68;;;;;;;33.35;9.08;96928.09;6382220;27;20073;-64
2022/03/24 07:12:49;;;;;;;1.40;0.73;;;;;;;34.71;7.96;96948.16;6375150;27;20104;-63
2022/03/24 07:15:51;;;;;;;1.67;0.75;;;;;;;36.36;7.50;96949.78;6376769;27;20424;-64
2022/03/24 07:18:53;;;;;;;1.05;0.50;;;;;;;36.60;6.60;96931.91;6378280;27;20054;-63
2022/03/24 07:21:57;;;;;;;1.93;0.60;;;;;;;35.67;7.40;96923.97;6383011;27;20042;-63
2022/03/24 07:25:02;;;;;;;0.93;0.57;;;;;;;35.14;7.03;96922.81;6382271;27;20110;-63
2022/03/24 07:28:14;;;;;;;1.88;0.75;;;;;;;34.23;7.48;96917.69;6359191;27;20038;-63
2022/03/24 07:31:23;;;;;;;1.27;0.45;;;;;;;35.88;7.06;96918.69;6376226;27;20043;-64
2022/03/24 07:34:30;;;;;;;1.67;0.77;;;;;;;37.05;6.17;96927.75;6378467;27;20054;-63
2022/03/24 07:37:36;;;;;;;0.95;0.43;;;;;;;37.13;6.12;96928.34;6382597;27;20043;-64
2022/03/24 07:40:41;;;;;;;2.05;0.75;;;;;;;37.56;6.12;96915.31;6381030;27;20043;-64
2022/03/24 07:43:44;;;;;;;1.92;0.90;;;;;;;38.74;5.75;96929.91;6382904;27;20046;-64
2022/03/24 07:46:48;;;;;;;1.27;0.60;;;;;;;39.28;5.63;96924.50;6381437;27;20079;-64
2022/03/24 07:49:52;;;;;;;3.70;0.90;;;;;;;39.48;5.30;96929.09;6383870;27;20038;-64
2022/03/24 07:52:54;;;;;;;1.33;0.40;;;;;;;40.49;5.40;96930.63;6376666;27;20061;-64
2022/03/24 07:55:59;;;;;;;0.50;0.40;;;;;;;40.47;4.85;96922.63;6381651;27;20039;-65
2022/03/24 07:59:05;;;;;;;2.10;0.73;;;;;;;40.13;4.87;96934.47;6383481;27;20046;-65
2022/03/24 08:02:09;;;;;;;1.75;1.17;;;;;;;39.51;5.12;96922.22;6376314;27;20043;-64
2022/03/24 08:05:12;;;;;;;1.20;0.65;;;;;;;39.94;5.16;96919.75;6360308;27;20055;-64
2022/03/24 08:08:17;;;;;;;1.52;0.50;;;;;;;40.94;4.50;96926.56;6378847;27;20411;-64
2022/03/24 08:11:25;;;;;;;1.05;0.40;;;;;;;41.53;4.17;96920.88;6379551;27;20038;-63
2022/03/24 08:14:34;;;;;;;1.33;1.20;;;;;;;41.49;4.38;96915.97;6380346;27;20403;-64
2022/03/24 08:17:40;;;;;;;1.52;0.40;;;;;;;41.83;4.32;96925.97;6381724;27;20043;-64
2022/03/24 08:20:51;;;;;;;1.70;0.75;;;;;;;41.55;4.27;96924.16;6384130;27;20407;-65
2022/03/24 08:23:52;;;;;;;1.23;0.32;;;;;;;40.39;4.46;96917.72;6389270;27;20042;-63
2022/03/24 08:26:54;;;;;;;0.75;0.28;;;;;;;39.20;4.87;96907.75;6379510;27;20047;-63
2022/03/24 08:29:58;;;;;;;0.50;0.25;;;;;;;38.45;5.22;96904.97;6375090;27;20047;-62
2022/03/24 08:33:05;;;;;;;0.47;0.40;;;;;;;37.01;5.48;96893.72;6383192;27;20484;-62
2022/03/24 08:36:10;;;;;;;0.82;0.40;;;;;;;37.38;5.43;96898.25;6388989;27;20492;-63
2022/03/24 08:39:15;;;;;;;2.00;0.70;;;;;;;38.31;5.31;96913.75;6379883;27;20042;-63
2022/03/24 08:42:17;;;;;;;0.70;0.70;;;;;;;39.24;5.54;96909.66;6393001;27;20043;-62
2022/03/24 08:45:22;;;;;;;1.27;0.80;;;;;;;39.83;4.93;96918.16;6391031;27;20047;-64
2022/03/24 08:48:28;;;;;;;2.08;0.80;;;;;;;39.87;4.98;96919.25;6372991;27;20057;-69
2022/03/24 08:51:36;;;;;;;1.25;0.60;;;;;;;38.87;5.61;96921.13;6381137;27;20042;-68
2022/03/24 08:54:44;;;;;;;1.92;0.80;;;;;;;38.75;5.09;96910.38;6388499;27;20043;-64
2022/03/24 08:57:45;;;;;;;1.90;0.73;;;;;;;37.64;6.04;96907.38;6386963;27;20039;-64
2022/03/24 09:00:49;;;;;;;1.35;0.63;;;;;;;36.94;6.25;96893.09;6389365;27;20062;-65
2022/03/24 09:03:53;;;;;;;2.95;0.80;;;;;;;36.93;6.02;96901.63;6374784;27;20050;-64
2022/03/24 09:06:56;;;;;;;1.42;0.65;;;;;;;36.52;6.47;96902.22;6382902;27;20412;-64
2022/03/24 09:10:00;;;;;;;1.63;0.80;;;;;;;36.31;6.85;96894.94;6358457;27;20637;-64
2022/03/24 09:13:11;;;;;;;1.45;0.60;;;;;;;37.08;6.16;96893.47;6382607;27;20146;-63
2022/03/24 09:16:15;;;;;;;6.05;0.80;;;;;;;37.83;6.15;96888.44;6385828;27;20471;-64
2022/03/24 09:19:19;;;;;;;1.75;0.90;;;;;;;38.00;5.86;96890.13;6398985;27;20047;-63
2022/03/24 09:22:23;;;;;;;2.10;0.90;;;;;;;36.69;6.58;96871.06;6378531;27;20051;-63
2022/03/24 09:25:30;;;;;;;1.10;0.85;;;;;;;35.29;6.89;96876.47;6374489;27;20046;-63
2022/03/24 09:28:35;;;;;;;2.08;0.90;;;;;;;34.90;7.24;96880.38;6395372;27;20495;-63
2022/03/24 09:31:39;;;;;;;1.25;0.88;;;;;;;35.07;7.13;96879.22;6386218;27;20046;-62
2022/03/24 09:34:43;;;;;;;1.00;0.70;;;;;;;35.21;7.10;96887.88;6383625;27;20043;-63
2022/03/24 09:37:49;;;;;;;1.00;0.80;;;;;;;34.29;7.83;96886.63;6382453;27;20053;-63
2022/03/24 09:40:56;;;;;;;1.50;1.10;;;;;;;33.62;8.14;96883.88;6382364;27;20173;-63
2022/03/24 09:43:59;;;;;;;1.77;0.98;;;;;;;33.31;7.63;96888.72;6379460;27;20408;-62
2022/03/24 09:47:04;;;;;;;0.80;0.80;;;;;;;32.03;8.32;96880.50;6383929;27;20031;-63
2022/03/24 09:50:06;;;;;;;1.23;0.82;;;;;;;32.64;8.53;96881.94;6378375;27;20050;-62
2022/03/24 09:53:13;;;;;;;1.65;1.15;;;;;;;32.78;8.25;96877.06;6389366;27;20046;-62
2022/03/24 09:56:16;;;;;;;1.15;1.02;;;;;;;31.84;8.28;96868.03;6377930;27;20547;-64
2022/03/24 09:59:25;;;;;;;2.22;1.50;;;;;;;30.49;9.23;96867.34;6377690;27;20050;-62
2022/03/24 10:02:33;;;;;;;1.60;1.00;;;;;;;29.48;9.50;96866.50;6378447;27;20031;-63
2022/03/24 10:06:07;;;;;;;2.97;1.35;;;;;;;29.84;9.75;96870.44;6381905;27;20031;-64
2022/03/24 10:09:10;;;;;;;1.90;0.90;;;;;;;29.73;9.35;96868.47;6382843;27;20043;-61
2022/03/24 10:12:18;;;;;;;1.98;0.80;;;;;;;30.40;9.12;96871.38;6388351;27;20039;-60
2022/03/24 10:15:22;;;;;;;1.52;0.80;;;;;;;30.74;9.01;96878.09;6380178;27;20526;-61
2022/03/24 10:18:27;;;;;;;0.98;0.85;;;;;;;31.45;8.41;96867.59;6378813;27;20038;-61
2022/03/24 10:21:33;;;;;;;2.03;1.00;;;;;;;31.71;8.18;96872.63;6383427;27;20058;-60
2022/03/24 10:24:44;;;;;;;1.23;1.00;;;;;;;30.97;8.73;96873.88;6382993;27;20031;-60
2022/03/24 10:28:03;;;;;;;2.35;1.30;;;;;;;29.09;9.84;96865.72;6382740;27;20043;-61
2022/03/24 10:31:05;;;;;;;2.88;1.90;;;;;;;27.44;10.42;96845.22;6391197;27;20035;-63
2022/03/24 10:34:09;;;;;;;2.35;1.40;;;;;;;27.73;10.66;96866.41;6373308;27;20078;-62
2022/03/24 10:37:17;;;;;;;3.20;1.67;;;;;;;27.77;10.97;96856.84;6379076;27;20051;-63
2022/03/24 10:40:25;;;;;;;3.33;1.58;;;;;;;27.36;11.00;96850.81;6379057;27;20567;-62
2022/03/24 10:43:34;;;;;;;3.17;1.52;;;;;;;26.09;12.03;96852.94;6359679;27;20039;-63
2022/03/24 10:46:39;;;;;;;2.00;1.42;;;;;;;25.77;12.30;96854.38;6381180;27;20042;-63
2022/03/24 10:49:40;;;;;;;3.17;1.23;;;;;;;25.09;12.50;96857.44;6374899;27;20054;-62
2022/03/24 10:52:47;;;;;;;2.13;1.40;;;;;;;24.80;13.18;96857.56;6384062;27;20027;-62
2022/03/24 10:56:18;;;;;;;1.63;0.90;;;;;;;25.13;12.72;96849.00;6381500;27;20039;-62
2022/03/24 10:59:28;;;;;;;1.50;1.00;;;;;;;24.59;13.43;96848.38;6377290;27;20412;-62
2022/03/24 11:02:33;;;;;;;2.58;1.55;;;;;;;24.24;13.52;96846.47;6383596;27;20038;-66
2022/03/24 11:05:40;;;;;;;2.92;1.42;;;;;;;24.39;13.79;96850.78;6384678;27;20034;-61
2022/03/24 11:08:51;;;;;;;1.67;1.23;;;;;;;24.68;13.48;96848.28;6371308;27;20043;-61
2022/03/24 11:12:26;;;;;;;3.53;2.33;;;;;;;24.19;14.06;96845.16;6370512;27;20073;-61
2022/03/24 11:15:34;;;;;;;2.88;2.10;;;;;;;23.81;14.19;96846.22;6371654;27;20416;-62
2022/03/24 11:18:36;;;;;;;3.47;1.98;;;;;;;23.57;14.46;96845.41;6369809;27;20424;-61
2022/03/24 11:21:39;;;;;;;2.35;1.33;;;;;;;22.97;14.90;96843.56;6370763;27;20556;-62
2022/03/24 11:24:41;;;;;;;2.92;1.58;;;;;;;22.91;14.79;96838.88;6383628;27;20035;-62
2022/03/24 11:27:43;;;;;;;1.63;1.38;;;;;;;22.94;14.85;96850.06;6387699;27;20035;-61
2022/03/24 11:30:44;;;;;;;2.25;1.00;;;;;;;23.40;14.46;96833.97;6396098;27;20046;-61
2022/03/24 11:33:50;;;;;;;2.15;1.20;;;;;;;23.53;14.11;96844.13;6397241;27;20031;-61
2022/03/24 11:36:57;;;;;;;2.28;1.17;;;;;;;23.56;14.24;96849.13;6378884;27;20043;-61
2022/03/24 11:40:07;;;;;;;3.20;1.35;;;;;;;23.57;14.08;96845.41;6375963;27;20399;-62
2022/03/24 11:43:17;;;;;;;2.03;1.40;;;;;;;24.22;13.52;96840.44;6377213;27;20039;-62
2022/03/24 11:46:33;;;;;;;1.58;1.30;;;;;;;23.60;13.67;96841.53;6373643;27;20047;-63
2022/03/24 11:49:37;;;;;;;3.45;2.28;;;;;;;22.66;14.20;96846.22;6372294;27;20039;-63
2022/03/24 11:52:39;;;;;;;4.00;1.80;;;;;;;21.57;15.13;96839.66;6370115;27;20087;-61
2022/03/24 11:56:01;;;;;;;3.55;1.95;;;;;;;21.27;15.43;96844.66;6384122;27;20035;-62
2022/03/24 11:59:06;;;;;;;2.40;1.92;;;;;;;20.83;15.67;96839.59;6381382;27;20043;-62
2022/03/24 12:02:16;;;;;;;1.30;1.10;;;;;;;20.49;16.05;96851.16;6361636;27;20051;-61
2022/03/24 12:05:39;;;;;;;3.10;1.63;;;;;;;18.29;18.62;96859.09;6375782;27;20050;-61
2022/03/24 12:08:45;;;;;;;3.05;1.33;;;;;;;17.00;19.58;96844.53;6383819;27;20457;-62
2022/03/24 12:12:13;;;;;;;2.85;1.27;;;;;;;17.58;18.94;96846.28;6376611;27;20441;-61
2022/03/24 12:15:23;;;;;;;2.47;1.35;;;;;;;19.18;17.33;96845.03;6376608;27;20035;-61
2022/03/24 12:18:40;;;;;;;2.28;1.70;;;;;;;18.88;17.76;96840.94;6382073;27;20118;-62
2022/03/24 12:21:48;;;;;;;1.75;1.38;;;;;;;18.23;18.51;96838.38;6378835;27;20043;-63
2022/03/24 12:24:51;;;;;;;3.53;2.15;;;;;;;17.55;19.36;96837.72;6384020;27;20030;-62
2022/03/24 12:28:07;;;;;;;2.70;2.08;;;;;;;16.84;20.40;96838.91;6375001;27;20042;-62
2022/03/24 12:31:16;;;;;;;4.00;2.08;;;;;;;16.44;20.87;96833.69;6383975;27;20050;-61
2022/03/24 12:34:21;;;;;;;2.55;1.73;;;;;;;16.15;20.57;96832.63;6378590;27;20519;-62
2022/03/24 12:37:22;;;;;;;1.92;1.30;;;;;;;16.02;20.48;96831.19;6357327;27;21588;-62
2022/03/24 12:40:26;;;;;;;3.40;1.50;;;;;;;15.39;20.92;96813.53;6370063;27;20485;-66
2022/03/24 12:43:45;;;;;;;1.92;1.33;;;;;;;14.93;21.80;96822.72;6379382;27;20491;-62
2022/03/24 12:46:59;;;;;;;2.47;1.38;;;;;;;14.81;21.82;96829.88;6366512;27;20031;-61
2022/03/24 12:50:21;;;;;;;2.50;1.48;;;;;;;14.25;22.95;96826.53;6382305;27;20110;-61
2022/03/24 12:53:51;;;;;;;1.65;1.27;;;;;;;14.37;22.17;96823.72;6360119;27;20054;-61
2022/03/24 12:57:19;;;;;;;2.42;1.52;;;;;;;14.24;22.46;96831.00;6372536;27;20072;-68
2022/03/24 13:00:37;;;;;;;2.40;1.65;;;;;;;13.76;23.01;96831.28;6361436;27;20031;-62
2022/03/24 13:03:39;;;;;;;4.75;1.60;;;;;;;13.17;23.42;96823.47;6379683;27;20046;-62
2022/03/24 13:06:43;;;;;;;2.53;1.48;;;;;;;12.83;24.10;96826.03;6380301;27;20043;-62
2022/03/24 13:10:01;;;;;;;;;;;;;;;12.92;23.92;96830.59;6384778;27;20039;-62
2022/03/24 13:13:07;;;;;;;1.73;1.40;;;;;;;12.44;25.00;96821.88;6383050;27;19919;-61
2022/03/24 13:16:23;;;;;;;3.13;1.90;;;;;;;12.26;25.54;96821.44;6357753;27;20055;-59
2022/03/24 13:19:27;;;;;;;4.05;2.00;;;;;;;11.55;27.09;96804.47;6376695;27;20058;-59
2022/03/24 13:22:32;;;;;;;2.88;1.98;;;;;;;11.20;27.39;96810.38;6376750;27;20142;-60
2022/03/24 13:25:41;;;;;;;2.53;1.60;;;;;;;10.62;28.12;96812.53;6374055;27;20117;-59
2022/03/24 13:28:57;;;;;;;3.55;1.88;;;;;;;10.34;28.56;96811.69;6381367;27;20042;-60
2022/03/24 13:32:11;;;;;;;4.13;1.90;;;;;;;10.23;29.25;96819.38;6398361;27;20085;-61
2022/03/24 13:35:16;;;;;;;2.40;1.98;;;;;;;9.99;29.88;96823.56;6394297;27;20126;-60
2022/03/24 13:38:24;;;;;;;3.85;2.40;;;;;;;9.55;30.39;96824.59;6381397;27;20050;-60
2022/03/24 13:41:31;;;;;;;3.17;2.10;;;;;;;9.16;30.72;96820.81;6373936;27;20111;-60
2022/03/24 13:44:37;;;;;;;3.88;2.38;;;;;;;9.03;31.34;96822.47;6388161;27;20042;-58
2022/03/24 13:47:48;;;;;;;4.80;1.90;;;;;;;8.64;32.37;96824.72;6379902;27;20509;-60
2022/03/24 13:51:08;;;;;;;5.72;3.30;;;;;;;8.26;33.58;96829.50;6399148;27;20380;-60
2022/03/24 13:54:21;;;;;;;2.78;1.88;;;;;;;7.86;34.04;96836.94;6398337;27;20047;-60
2022/03/24 13:57:23;;;;;;;3.30;2.13;;;;;;;7.55;34.97;96835.97;6395936;27;20041;-61
2022/03/24 14:00:32;;;;;;;3.40;2.13;;;;;;;7.09;35.66;96838.38;6384176;27;20527;-60
2022/03/24 14:03:41;;;;;;;4.32;2.40;;;;;;;6.98;36.52;96835.47;6389912;27;20404;-60
2022/03/24 14:07:02;;;;;;;6.05;2.85;;;;;;;6.69;37.01;96837.81;6377430;27;20035;-60
2022/03/24 14:10:06;;;;;;;4.95;2.53;;;;;;;6.41;38.27;96842.69;6389612;27;20042;-59
2022/03/24 14:13:15;;;;;;;7.03;4.40;;;;;;;6.03;38.49;96838.41;6387373;27;20050;-61
2022/03/24 14:16:20;;;;;;;4.57;2.65;;;;;;;5.68;39.25;96836.53;6372566;27;20035;-60
2022/03/24 14:19:29;;;;;;;3.65;2.40;;;;;;;5.55;39.14;96837.09;6390070;27;20038;-61
2022/03/24 14:22:46;;;;;;;4.00;3.13;;;;;;;5.53;39.30;96838.94;6383249;27;20043;-61
2022/03/24 14:25:50;;;;;;;4.82;3.58;;;;;;;5.22;39.89;96839.47;6379401;27;20455;-61
2022/03/24 14:28:51;;;;;;;4.85;3.30;;;;;;;5.24;40.21;96842.84;6377043;27;20503;-64
2022/03/24 14:32:17;;;;;;;7.03;3.83;;;;;;;5.09;40.16;96838.28;6360118;27;20050;-59
2022/03/24 14:35:27;;;;;;;3.75;2.78;;;;;;;4.91;40.66;96837.34;6377744;27;20039;-62
2022/03/24 14:38:28;;;;;;;4.15;2.80;;;;;;;4.92;40.43;96837.25;6377315;27;20058;-60
2022/03/24 14:41:33;;;;;;;2.95;2.30;;;;;;;4.78;40.40;96839.59;6384224;27;20034;-59